This is the latest recevied weather packets stored in our database for station/object K7SKM. If no packets are shown the sender has not sent any weather packets the latest 10 day(s).
| Time | Temp. | Humidity | Pressure | Rain* | Wind** | Luminosity | Snow |
|---|---|---|---|---|---|---|---|
| 1777491348 | 17.78° C | 50% | 1028.5 hPa | 0 mm | - | 401 W/m² | - |
| 1777491045 | 18.33° C | 51% | 1028.5 hPa | 0 mm | - | 394 W/m² | - |
| 1777490740 | 17.78° C | 53% | 1028.6 hPa | 0 mm | - | 391 W/m² | - |
| 1777490438 | 16.67° C | 53% | 1028.7 hPa | 0 mm | - | 384 W/m² | - |
| 1777490134 | 17.22° C | 52% | 1028.5 hPa | 0 mm | - | 389 W/m² | - |
| 1777489831 | 17.78° C | 50% | 1028.6 hPa | 0 mm | - | 390 W/m² | - |
| 1777489528 | 17.78° C | 48% | 1028.7 hPa | 0 mm | - | 389 W/m² | - |
| 1777489225 | 17.78° C | 47% | 1028.6 hPa | 0 mm | - | 388 W/m² | - |
| 1777488922 | 16.67° C | 50% | 1028.7 hPa | 0 mm | - | 386 W/m² | - |
| 1777488619 | 16.11° C | 53% | 1028.8 hPa | 0 mm | - | 382 W/m² | - |
| 1777488317 | 16.67° C | 52% | 1028.8 hPa | 0 mm | - | 383 W/m² | - |
| 1777488015 | 16.67° C | 53% | 1028.9 hPa | 0 mm | - | 378 W/m² | - |
| 1777487712 | 16.67° C | 57% | 1028.9 hPa | 0 mm | - | 373 W/m² | - |
| 1777487410 | 16.67° C | 52% | 1029 hPa | 0 mm | - | 376 W/m² | - |
| 1777487107 | 17.22° C | 52% | 1029.1 hPa | 0 mm | - | 380 W/m² | - |
| 1777486802 | 17.22° C | 51% | 1029.1 hPa | 0 mm | - | 383 W/m² | - |
| 1777486501 | 17.22° C | 50% | 1029.1 hPa | 0 mm | - | 381 W/m² | - |
| 1777486198 | 17.78° C | 51% | 1028.9 hPa | 0 mm | - | 379 W/m² | - |
| 1777485896 | 17.78° C | 49% | 1029.1 hPa | 0 mm | - | 376 W/m² | - |
| 1777485591 | 16.67° C | 53% | 1029.1 hPa | 0 mm | - | 363 W/m² | - |
| 1777485286 | 16.11° C | 55% | 1029.3 hPa | 0 mm | - | 352 W/m² | - |
| 1777484983 | 16.11° C | 56% | 1029.2 hPa | 0 mm | - | 346 W/m² | - |
| 1777484681 | 15° C | 57% | 1029.1 hPa | 0 mm | - | 335 W/m² | - |
| 1777484377 | 15° C | 58% | 1029 hPa | 0 mm | - | 329 W/m² | - |
| 1777484073 | 15.56° C | 58% | 1029.1 hPa | 0 mm | - | 324 W/m² | - |
* Rain latest hour (hover to see other rain measurements)
** Current wind speed in m/s (hover to see current wind gust speed)